createdAt,value
2019-05-02T00:01:27.075Z,16.20
2019-05-02T00:03:35.952Z,17.30
2019-05-02T00:05:38.006Z,19.63
2019-05-02T00:07:43.641Z,20.47
2019-05-02T00:09:50.131Z,18.93
2019-05-02T00:11:58.802Z,19.70
2019-05-02T00:13:59.874Z,19.20
2019-05-02T00:16:03.871Z,18.77
2019-05-02T00:18:08.188Z,19.67
2019-05-02T00:20:12.907Z,18.77
2019-05-02T00:22:18.463Z,18.83
2019-05-02T00:24:22.867Z,16.37
2019-05-02T00:26:26.873Z,16.63
2019-05-02T00:28:50.541Z,19.40
2019-05-02T00:30:54.402Z,18.20
2019-05-02T00:32:59.521Z,18.90
2019-05-02T00:35:04.093Z,20.00
2019-05-02T00:37:07.957Z,16.23
2019-05-02T00:39:13.864Z,18.40
2019-05-02T00:41:17.364Z,18.63
2019-05-02T00:43:21.236Z,16.43
2019-05-02T00:45:25.979Z,17.23
2019-05-02T00:47:49.804Z,16.77
2019-05-02T00:49:53.809Z,18.40
2019-05-02T00:52:01.396Z,19.70
2019-05-02T00:54:03.228Z,18.30
2019-05-02T00:56:09.006Z,18.33
2019-05-02T00:58:12.669Z,19.87
2019-05-02T01:00:18.414Z,18.80
2019-05-02T01:02:40.462Z,18.17
2019-05-02T01:04:43.291Z,18.33
2019-05-02T01:06:49.252Z,18.23
2019-05-02T01:08:52.935Z,18.53
2019-05-02T01:10:58.026Z,20.47
2019-05-02T01:13:02.184Z,19.20
2019-05-02T01:15:08.294Z,18.55
2019-05-02T01:17:13.173Z,18.83
2019-05-02T01:19:18.195Z,18.80
2019-05-02T01:21:22.411Z,20.07
2019-05-02T01:23:27.736Z,19.63
2019-05-02T01:25:32.269Z,19.30
2019-05-02T01:27:41.087Z,19.83
2019-05-02T01:29:51.031Z,17.87
2019-05-02T01:32:12.042Z,16.13
2019-05-02T01:34:32.835Z,17.50
2019-05-02T01:36:54.860Z,17.13
2019-05-02T01:39:02.866Z,18.13
2019-05-02T01:41:04.521Z,18.03
2019-05-02T01:43:23.975Z,17.83
2019-05-02T01:45:28.395Z,17.07
2019-05-02T01:47:36.525Z,17.97
2019-05-02T01:49:40.571Z,19.57
2019-05-02T01:51:47.414Z,16.20
2019-05-02T01:53:49.969Z,18.87
2019-05-02T01:55:57.727Z,15.50
2019-05-02T01:57:59.499Z,18.23
2019-05-02T02:00:09.436Z,18.03
2019-05-02T02:02:11.022Z,18.90
2019-05-02T02:04:16.236Z,19.60
2019-05-02T02:06:20.647Z,17.67
2019-05-02T02:08:32.632Z,18.07
2019-05-02T02:10:36.338Z,18.67
2019-05-02T02:12:42.932Z,15.20
2019-05-02T02:14:48.055Z,17.77
2019-05-02T02:16:51.837Z,17.07
2019-05-02T02:18:59.089Z,16.67
2019-05-02T02:21:25.633Z,15.13
2019-05-02T02:23:44.906Z,17.80
2019-05-02T02:26:06.718Z,16.90
2019-05-02T02:28:09.521Z,18.10
2019-05-02T02:30:17.709Z,17.13
2019-05-02T02:32:26.608Z,17.00
2019-05-02T02:34:29.400Z,16.73
2019-05-02T02:36:33.909Z,18.27
2019-05-02T02:38:36.368Z,17.07
2019-05-02T02:40:41.079Z,17.97
2019-05-02T02:42:46.014Z,18.20
2019-05-02T02:44:51.891Z,17.90
2019-05-02T02:46:56.185Z,17.07
2019-05-02T02:49:00.443Z,18.13
2019-05-02T02:51:05.124Z,17.87
2019-05-02T02:53:09.273Z,16.23
2019-05-02T02:55:16.072Z,18.07
2019-05-02T02:57:25.655Z,16.13
2019-05-02T02:59:46.444Z,17.00
2019-05-02T03:01:50.332Z,17.90
2019-05-02T03:03:54.258Z,19.37
2019-05-02T03:05:58.681Z,18.67
2019-05-02T03:08:05.345Z,18.53
2019-05-02T03:10:10.934Z,17.37
2019-05-02T03:12:22.242Z,18.63
2019-05-02T03:14:27.721Z,18.83
2019-05-02T03:16:33.389Z,17.20
2019-05-02T03:18:41.062Z,18.77
2019-05-02T03:20:42.810Z,18.03
2019-05-02T03:22:46.652Z,19.47
2019-05-02T03:24:50.568Z,19.77
2019-05-02T03:26:55.817Z,18.73
2019-05-02T03:29:00.930Z,17.57
2019-05-02T03:31:21.887Z,17.97
2019-05-02T03:33:12.368Z,18.93
2019-05-02T03:35:18.622Z,18.00
2019-05-02T03:37:22.562Z,18.07
2019-05-02T03:39:26.461Z,18.80
2019-05-02T03:41:30.336Z,19.07
2019-05-02T03:43:34.191Z,19.90
2019-05-02T03:45:42.812Z,19.53
2019-05-02T03:47:46.474Z,20.27
2019-05-02T03:49:52.242Z,19.97
2019-05-02T03:52:01.614Z,19.93
2019-05-02T03:54:07.714Z,17.77
2019-05-02T03:56:11.509Z,19.33
2019-05-02T03:58:14.023Z,20.77
2019-05-02T04:00:21.239Z,20.13
2019-05-02T04:02:24.253Z,19.67
2019-05-02T04:04:29.726Z,21.20
2019-05-02T04:06:33.637Z,18.80
2019-05-02T04:08:38.300Z,19.83
2019-05-02T04:10:52.733Z,20.60
2019-05-02T04:12:58.501Z,19.53
2019-05-02T04:14:59.138Z,19.83
2019-05-02T04:17:03.257Z,20.43
2019-05-02T04:19:07.254Z,19.37
2019-05-02T04:21:11.569Z,20.87
2019-05-02T04:23:21.428Z,19.63
2019-05-02T04:25:28.134Z,21.00
2019-05-02T04:27:34.081Z,20.93
2019-05-02T04:29:36.108Z,21.83
2019-05-02T04:31:40.200Z,20.07
2019-05-02T04:33:44.310Z,23.27
2019-05-02T04:35:48.419Z,19.27
2019-05-02T04:37:52.630Z,21.33
2019-05-02T04:39:59.164Z,20.83
2019-05-02T04:42:11.300Z,20.80
2019-05-02T04:44:09.076Z,20.70
2019-05-02T04:46:22.078Z,18.67
2019-05-02T04:48:19.214Z,19.73
2019-05-02T04:50:25.105Z,20.07
2019-05-02T04:52:29.078Z,18.83
2019-05-02T04:54:33.179Z,22.67
2019-05-02T04:56:42.165Z,22.20
2019-05-02T04:58:42.836Z,21.77
2019-05-02T05:00:53.481Z,20.87
2019-05-02T05:02:53.285Z,18.47
2019-05-02T05:04:58.216Z,18.70
2019-05-02T05:07:02.542Z,21.77
2019-05-02T05:09:12.690Z,19.53
2019-05-02T05:11:13.876Z,20.60
2019-05-02T05:13:22.802Z,20.50
2019-05-02T05:15:37.097Z,18.70
2019-05-02T05:17:34.069Z,19.47
2019-05-02T05:19:37.358Z,20.90
2019-05-02T05:21:43.288Z,19.53
2019-05-02T05:24:01.369Z,20.63
2019-05-02T05:26:04.867Z,19.03
2019-05-02T05:28:09.263Z,21.33
2019-05-02T05:30:15.955Z,16.87
2019-05-02T05:32:19.081Z,19.70
2019-05-02T05:34:27.856Z,18.93
2019-05-02T05:36:32.521Z,22.07
2019-05-02T05:38:36.027Z,21.30
2019-05-02T05:40:39.922Z,20.97
2019-05-02T05:42:44.136Z,23.43
2019-05-02T05:44:48.368Z,23.63
2019-05-02T05:46:52.864Z,24.70
2019-05-02T05:48:58.255Z,24.20
2019-05-02T05:51:02.616Z,25.03
2019-05-02T05:53:07.965Z,23.90
2019-05-02T05:55:12.715Z,24.67
2019-05-02T05:57:21.128Z,21.93
2019-05-02T05:59:28.016Z,25.80
2019-05-02T06:01:34.105Z,23.50
2019-05-02T06:03:41.505Z,24.73
2019-05-02T06:05:41.020Z,22.20
2019-05-02T06:07:47.309Z,24.77
2019-05-02T06:09:51.054Z,23.30
2019-05-02T06:11:55.578Z,24.10
2019-05-02T06:14:00.917Z,23.60
2019-05-02T06:16:05.151Z,26.90
2019-05-02T06:18:09.238Z,23.50
2019-05-02T06:20:13.700Z,25.93
2019-05-02T06:22:24.469Z,23.10
2019-05-02T06:24:23.302Z,23.03
2019-05-02T06:26:27.414Z,26.03
2019-05-02T06:28:36.086Z,25.63
2019-05-02T06:30:37.383Z,24.70
2019-05-02T06:32:41.274Z,17.67
2019-05-02T06:34:47.536Z,23.07
2019-05-02T06:36:51.031Z,23.10
2019-05-02T06:38:56.728Z,24.83
2019-05-02T06:41:00.678Z,25.80
2019-05-02T06:43:09.799Z,23.37
2019-05-02T06:45:11.254Z,27.07
2019-05-02T06:47:15.468Z,24.87
2019-05-02T06:49:24.186Z,27.10
2019-05-02T06:51:25.216Z,25.03
2019-05-02T06:53:29.426Z,24.93
2019-05-02T06:55:36.515Z,24.80
2019-05-02T06:57:39.077Z,26.77
2019-05-02T06:59:43.288Z,25.57
2019-05-02T07:01:47.300Z,24.53
2019-05-02T07:03:51.300Z,25.40
2019-05-02T07:05:58.749Z,25.47
2019-05-02T07:08:00.862Z,20.03
2019-05-02T07:10:08.037Z,22.93
2019-05-02T07:12:14.727Z,25.37
2019-05-02T07:14:18.587Z,23.67
2019-05-02T07:16:37.809Z,25.63
2019-05-02T07:18:35.276Z,17.33
2019-05-02T07:20:40.585Z,26.03
2019-05-02T07:22:45.706Z,25.50
2019-05-02T07:24:50.415Z,24.83
2019-05-02T07:26:56.815Z,17.83
2019-05-02T07:29:00.170Z,25.57
2019-05-02T07:31:06.491Z,22.23
2019-05-02T07:33:09.918Z,25.03
2019-05-02T07:35:14.539Z,24.97
2019-05-02T07:37:18.751Z,24.33
2019-05-02T07:39:22.744Z,26.87
2019-05-02T07:41:29.029Z,25.60
2019-05-02T07:43:32.716Z,26.30
2019-05-02T07:45:40.227Z,27.60
2019-05-02T07:47:42.555Z,25.67
2019-05-02T07:49:46.781Z,26.80
2019-05-02T07:51:52.325Z,27.37
2019-05-02T07:53:56.431Z,27.10
2019-05-02T07:56:00.541Z,27.87
2019-05-02T07:58:06.996Z,28.17
2019-05-02T08:00:11.964Z,26.47
2019-05-02T08:02:20.250Z,26.97
2019-05-02T08:04:21.693Z,26.23
2019-05-02T08:06:34.917Z,27.43
2019-05-02T08:08:31.885Z,27.03
2019-05-02T08:10:35.956Z,27.53
2019-05-02T08:12:40.171Z,25.17
2019-05-02T08:14:44.177Z,24.63
2019-05-02T08:16:48.390Z,27.80
2019-05-02T08:18:52.497Z,18.33
2019-05-02T08:20:57.420Z,27.03
2019-05-02T08:23:01.941Z,27.77
2019-05-02T08:25:10.404Z,29.72
2019-05-02T08:27:24.082Z,26.90
2019-05-02T08:29:28.908Z,26.60
2019-05-02T08:31:33.729Z,28.80
2019-05-02T08:33:37.950Z,28.33
2019-05-02T08:35:42.055Z,27.70
2019-05-02T08:37:46.161Z,24.17
2019-05-02T08:39:50.066Z,26.03
2019-05-02T08:41:56.512Z,24.17
2019-05-02T08:43:59.823Z,26.93
2019-05-02T08:46:04.024Z,25.80
2019-05-02T08:48:08.243Z,23.93
2019-05-02T08:50:13.887Z,24.40
2019-05-02T08:52:18.098Z,26.97
2019-05-02T08:54:22.208Z,22.17
2019-05-02T08:56:26.111Z,25.00
2019-05-02T08:58:30.219Z,24.93
2019-05-02T09:00:37.586Z,22.97
2019-05-02T09:02:41.500Z,24.20
2019-05-02T09:04:57.651Z,24.43
2019-05-02T09:06:53.234Z,25.10
2019-05-02T09:08:56.600Z,27.83
2019-05-02T09:11:00.814Z,19.07
2019-05-02T09:13:04.920Z,23.63
2019-05-02T09:15:09.019Z,26.27
2019-05-02T09:17:16.416Z,25.23
2019-05-02T09:19:21.442Z,26.10
2019-05-02T09:21:26.848Z,20.60
2019-05-02T09:23:33.240Z,24.63
2019-05-02T09:25:35.717Z,27.33
2019-05-02T09:27:41.845Z,24.70
2019-05-02T09:29:45.987Z,26.27
2019-05-02T09:31:52.489Z,27.20
2019-05-02T09:33:55.940Z,23.30
2019-05-02T09:35:59.856Z,27.10
2019-05-02T09:38:03.950Z,22.60
2019-05-02T09:40:14.993Z,26.20
2019-05-02T09:42:16.367Z,23.77
2019-05-02T09:44:19.758Z,23.97
2019-05-02T09:46:23.870Z,23.13
2019-05-02T09:48:27.976Z,25.77
2019-05-02T09:50:34.367Z,23.90
2019-05-02T09:52:39.553Z,24.37
2019-05-02T09:54:46.089Z,21.53
2019-05-02T09:56:48.917Z,22.00
2019-05-02T09:58:55.063Z,22.87
2019-05-02T10:01:09.423Z,23.20
2019-05-02T10:03:13.840Z,21.30
2019-05-02T10:05:18.151Z,24.20
2019-05-02T10:07:22.331Z,22.20
2019-05-02T10:09:27.310Z,27.90
2019-05-02T10:11:32.286Z,22.63
2019-05-02T10:13:36.532Z,25.57
2019-05-02T10:15:42.098Z,27.37
2019-05-02T10:17:46.873Z,25.80
2019-05-02T10:19:54.924Z,24.30
2019-05-02T10:21:56.757Z,19.37
2019-05-02T10:24:01.727Z,24.67
2019-05-02T10:26:06.306Z,23.03
2019-05-02T10:28:12.799Z,25.80
2019-05-02T10:30:16.417Z,26.33
2019-05-02T10:32:22.551Z,26.70
2019-05-02T10:34:26.006Z,23.63
2019-05-02T10:36:32.389Z,27.27
2019-05-02T10:38:35.976Z,25.17
2019-05-02T10:40:39.881Z,25.23
2019-05-02T10:42:44.090Z,25.80
2019-05-02T10:44:48.302Z,26.73
2019-05-02T10:46:59.273Z,26.53
2019-05-02T10:49:04.912Z,26.30
2019-05-02T10:51:13.322Z,25.17
2019-05-02T10:53:17.430Z,25.17
2019-05-02T10:55:22.301Z,22.53
2019-05-02T10:57:27.390Z,23.53
2019-05-02T10:59:32.763Z,24.73
2019-05-02T11:01:38.679Z,24.90
2019-05-02T11:03:47.437Z,21.87
2019-05-02T11:05:52.811Z,25.33
2019-05-02T11:08:04.706Z,23.97
2019-05-02T11:10:06.674Z,26.37
2019-05-02T11:12:11.778Z,26.13
2019-05-02T11:14:17.373Z,25.90
2019-05-02T11:16:39.491Z,26.97
2019-05-02T11:18:56.819Z,22.73
2019-05-02T11:21:04.456Z,22.90
2019-05-02T11:23:06.357Z,24.80
2019-05-02T11:25:12.061Z,27.97
2019-05-02T11:27:16.315Z,27.43
2019-05-02T11:29:20.423Z,21.33
2019-05-02T11:31:24.734Z,27.90
2019-05-02T11:33:28.769Z,27.60
2019-05-02T11:35:32.810Z,26.47
2019-05-02T11:37:37.267Z,26.60
2019-05-02T11:39:46.751Z,23.97
2019-05-02T11:41:46.818Z,27.97
2019-05-02T11:43:54.051Z,24.23
2019-05-02T11:46:02.578Z,24.53
2019-05-02T11:48:09.111Z,25.17
2019-05-02T11:50:07.925Z,26.00
2019-05-02T11:52:12.073Z,24.27
2019-05-02T11:54:16.281Z,25.17
2019-05-02T11:56:22.046Z,27.33
2019-05-02T11:58:26.041Z,22.53
2019-05-02T12:00:32.218Z,26.57
2019-05-02T12:02:37.430Z,24.67
2019-05-02T12:04:41.849Z,26.97
2019-05-02T12:06:49.932Z,24.80
2019-05-02T12:08:52.554Z,26.30
2019-05-02T12:10:57.142Z,27.23
2019-05-02T12:13:02.168Z,24.87
2019-05-02T12:15:08.325Z,24.12
2019-05-02T12:17:12.434Z,23.70
2019-05-02T12:19:16.429Z,25.73
2019-05-02T12:21:22.619Z,24.63
2019-05-02T12:23:26.091Z,22.37
2019-05-02T12:25:30.206Z,21.13
2019-05-02T12:27:34.311Z,18.30
2019-05-02T12:29:38.416Z,18.33
2019-05-02T12:31:42.753Z,25.57
2019-05-02T12:33:47.044Z,24.27
2019-05-02T12:35:52.481Z,22.20
2019-05-02T12:37:56.901Z,19.60
2019-05-02T12:40:02.667Z,20.40
2019-05-02T12:42:06.726Z,22.60
2019-05-02T12:44:11.739Z,21.20
2019-05-02T12:46:16.101Z,19.60
2019-05-02T12:48:21.778Z,23.07
2019-05-02T12:50:25.751Z,23.93
2019-05-02T12:52:31.963Z,22.83
2019-05-02T12:54:35.401Z,23.33
2019-05-02T12:56:39.511Z,24.33
2019-05-02T12:58:43.627Z,18.70
2019-05-02T13:00:47.524Z,20.63
2019-05-02T13:02:53.171Z,19.33
2019-05-02T13:04:57.073Z,21.50
2019-05-02T13:07:02.174Z,19.07
2019-05-02T13:09:09.281Z,15.70
2019-05-02T13:11:14.823Z,18.07
2019-05-02T13:13:19.042Z,20.03
2019-05-02T13:15:23.261Z,16.00
2019-05-02T13:17:29.416Z,20.23
2019-05-02T13:19:40.226Z,16.83
2019-05-02T13:21:59.335Z,19.63
2019-05-02T13:24:07.249Z,15.37
2019-05-02T13:26:19.678Z,16.67
2019-05-02T13:28:22.351Z,14.33
2019-05-02T13:30:46.219Z,17.23
2019-05-02T13:32:52.851Z,19.87
2019-05-02T13:34:57.225Z,18.50
2019-05-02T13:37:02.926Z,19.80
2019-05-02T13:39:12.388Z,17.20
2019-05-02T13:41:16.961Z,17.27
2019-05-02T13:43:22.711Z,20.20
2019-05-02T13:45:28.352Z,18.80
2019-05-02T13:47:32.622Z,18.60
2019-05-02T13:49:36.778Z,16.40
2019-05-02T13:51:42.490Z,19.80
2019-05-02T13:53:52.133Z,21.20
2019-05-02T13:56:13.983Z,17.63
2019-05-02T13:58:21.502Z,15.20
2019-05-02T14:00:27.837Z,15.53
2019-05-02T14:02:43.411Z,14.93
2019-05-02T14:04:47.317Z,15.00
2019-05-02T14:06:52.869Z,14.87
2019-05-02T14:09:02.902Z,12.77
2019-05-02T14:11:08.863Z,11.40
2019-05-02T14:13:12.969Z,10.63
2019-05-02T14:15:18.937Z,10.27
2019-05-02T14:17:23.066Z,10.67
2019-05-02T14:19:46.589Z,9.63
2019-05-02T14:21:51.854Z,10.70
2019-05-02T14:23:56.036Z,8.27
2019-05-02T14:26:01.905Z,7.93
2019-05-02T14:28:05.790Z,6.47
2019-05-02T14:30:12.008Z,6.27
2019-05-02T14:32:23.689Z,5.57
2019-05-02T14:34:28.459Z,6.00
2019-05-02T14:36:32.599Z,6.00
2019-05-02T14:38:36.880Z,6.67
2019-05-02T14:40:43.857Z,5.67
2019-05-02T14:42:47.861Z,6.67
2019-05-02T14:45:05.611Z,7.07
2019-05-02T14:46:57.616Z,6.73
2019-05-02T14:49:02.786Z,7.73
2019-05-02T14:51:07.062Z,7.20
2019-05-02T14:53:12.018Z,6.53
2019-05-02T14:55:16.994Z,8.10
2019-05-02T14:57:27.013Z,7.77
2019-05-02T14:59:28.991Z,8.53
2019-05-02T15:01:33.443Z,8.10
2019-05-02T15:03:37.654Z,9.00
2019-05-02T15:05:42.436Z,9.43
2019-05-02T15:07:46.692Z,9.57
2019-05-02T15:09:52.390Z,9.17
2019-05-02T15:11:59.126Z,7.67
2019-05-02T15:14:03.205Z,8.43
2019-05-02T15:16:12.339Z,8.37
2019-05-02T15:18:17.404Z,7.67
2019-05-02T15:20:18.510Z,7.27
2019-05-02T15:22:22.895Z,6.40
2019-05-02T15:24:27.758Z,6.20
2019-05-02T15:26:34.979Z,5.03
2019-05-02T15:28:39.375Z,5.30
2019-05-02T15:30:49.400Z,5.70
2019-05-02T15:33:02.980Z,6.67
2019-05-02T15:35:12.949Z,5.43
2019-05-02T15:37:21.419Z,6.33
2019-05-02T15:41:28.474Z,5.17
2019-05-02T15:43:32.479Z,5.30
2019-05-02T15:45:36.600Z,5.47
2019-05-02T15:47:45.165Z,4.83
2019-05-02T15:49:50.038Z,5.20
2019-05-02T15:51:53.208Z,3.73
2019-05-02T15:54:08.737Z,3.47
2019-05-02T15:56:18.760Z,3.20
2019-05-02T15:58:22.413Z,3.30
2019-05-02T16:00:25.773Z,3.07
2019-05-02T16:02:32.105Z,3.30
2019-05-02T16:04:37.839Z,3.00
2019-05-02T16:06:41.976Z,3.63
2019-05-02T16:08:49.336Z,3.10
2019-05-02T16:10:53.597Z,2.90
2019-05-02T16:12:59.554Z,3.00
2019-05-02T16:15:08.425Z,3.00
2019-05-02T16:17:09.247Z,3.47
2019-05-02T16:19:14.602Z,3.93
2019-05-02T16:21:27.051Z,4.30
2019-05-02T16:23:32.769Z,3.03
2019-05-02T16:25:32.054Z,2.73
2019-05-02T16:27:44.382Z,2.60
2019-05-02T16:29:48.746Z,2.93
2019-05-02T16:31:54.969Z,2.77
2019-05-02T16:34:00.025Z,2.67
2019-05-02T16:36:04.148Z,2.63
2019-05-02T16:38:08.150Z,2.20
2019-05-02T16:40:13.086Z,2.43
2019-05-02T16:42:17.090Z,2.27
2019-05-02T16:44:22.331Z,2.30
2019-05-02T16:46:27.657Z,2.70
2019-05-02T16:48:37.388Z,2.53
2019-05-02T16:50:37.208Z,2.40
2019-05-02T16:52:45.525Z,2.57
2019-05-02T16:54:46.855Z,1.90
2019-05-02T16:56:52.131Z,2.20
2019-05-02T16:58:56.408Z,2.40
2019-05-02T17:01:00.518Z,2.87
2019-05-02T17:03:04.932Z,2.27
2019-05-02T17:05:10.201Z,2.10
2019-05-02T17:07:16.836Z,1.90
2019-05-02T17:09:24.048Z,1.60
2019-05-02T17:11:35.930Z,1.93
2019-05-02T17:13:41.814Z,1.57
2019-05-02T17:15:45.965Z,2.20
2019-05-02T17:17:50.074Z,1.70
2019-05-02T17:19:53.965Z,2.03
2019-05-02T17:21:58.090Z,1.93
2019-05-02T17:24:02.569Z,1.80
2019-05-02T17:26:06.917Z,1.80
2019-05-02T17:28:13.213Z,1.60
2019-05-02T17:30:17.183Z,1.57
2019-05-02T17:32:22.381Z,1.63
2019-05-02T17:34:30.643Z,2.07
2019-05-02T17:36:32.551Z,2.13
2019-05-02T17:38:36.692Z,1.80
2019-05-02T17:40:42.159Z,1.93
2019-05-02T17:42:46.547Z,2.03
2019-05-02T17:44:51.844Z,2.03
2019-05-02T17:46:58.091Z,2.10
2019-05-02T17:49:02.561Z,2.40
2019-05-02T17:51:12.380Z,2.27
2019-05-02T17:53:16.308Z,1.70
2019-05-02T17:55:21.500Z,1.80
2019-05-02T17:57:28.550Z,2.33
2019-05-02T17:59:34.644Z,1.80
2019-05-02T18:01:38.273Z,1.50
2019-05-02T18:03:42.638Z,2.07
2019-05-02T18:05:46.999Z,2.00
2019-05-02T18:07:52.589Z,2.00
2019-05-02T18:09:56.755Z,2.30
2019-05-02T18:12:01.567Z,1.87
2019-05-02T18:14:18.620Z,2.00
2019-05-02T18:16:15.148Z,1.93
2019-05-02T18:18:17.189Z,2.10
2019-05-02T18:20:21.939Z,2.10
2019-05-02T18:22:26.347Z,2.33
2019-05-02T18:24:32.495Z,2.20
2019-05-02T18:26:36.122Z,2.67
2019-05-02T18:28:46.904Z,2.57
2019-05-02T18:30:45.710Z,2.83
2019-05-02T18:32:49.935Z,2.43
2019-05-02T18:34:56.790Z,3.03
2019-05-02T18:37:03.037Z,2.63
2019-05-02T18:39:07.589Z,2.77
2019-05-02T18:41:12.098Z,3.13
2019-05-02T18:43:16.215Z,2.90
2019-05-02T18:45:28.540Z,3.80
2019-05-02T18:47:33.499Z,3.33
2019-05-02T18:49:37.754Z,3.00
2019-05-02T18:51:42.355Z,3.00
2019-05-02T18:53:46.482Z,3.00
2019-05-02T18:55:51.873Z,2.80
2019-05-02T18:57:57.049Z,3.03
2019-05-02T19:00:02.049Z,2.80
2019-05-02T19:02:06.408Z,2.90
2019-05-02T19:04:10.396Z,3.90
2019-05-02T19:06:14.617Z,3.07
2019-05-02T19:08:29.078Z,2.80
2019-05-02T19:10:24.987Z,3.60
2019-05-02T19:12:29.095Z,3.00
2019-05-02T19:14:32.999Z,3.17
2019-05-02T19:16:37.210Z,3.10
2019-05-02T19:18:42.525Z,3.37
2019-05-02T19:20:57.479Z,2.90
2019-05-02T19:23:02.829Z,3.23
2019-05-02T19:25:06.855Z,3.50
2019-05-02T19:27:12.921Z,3.00
2019-05-02T19:29:21.331Z,4.30
2019-05-02T19:31:25.316Z,3.30
2019-05-02T19:33:31.723Z,3.30
2019-05-02T19:35:37.556Z,3.90
2019-05-02T19:37:44.612Z,3.90
2019-05-02T19:39:48.775Z,4.03
2019-05-02T19:41:52.733Z,3.77
2019-05-02T19:43:56.735Z,4.37
2019-05-02T19:46:02.221Z,3.87
2019-05-02T19:48:08.228Z,3.47
2019-05-02T19:50:32.261Z,4.43
2019-05-02T19:52:39.293Z,4.27
2019-05-02T19:54:43.499Z,4.07
2019-05-02T19:56:47.676Z,4.10
2019-05-02T19:58:52.122Z,3.70
2019-05-02T20:00:56.740Z,4.10
2019-05-02T20:03:01.780Z,4.40
2019-05-02T20:05:07.425Z,4.05
2019-05-02T20:07:12.358Z,3.90
2019-05-02T20:09:16.556Z,4.17
2019-05-02T20:11:21.927Z,4.87
2019-05-02T20:13:30.597Z,4.40
2019-05-02T20:15:33.389Z,4.70
2019-05-02T20:17:37.391Z,4.23
2019-05-02T20:19:42.923Z,4.20
2019-05-02T20:21:49.194Z,3.90
2019-05-02T20:23:53.405Z,4.00
2019-05-02T20:25:57.306Z,4.23
2019-05-02T20:28:01.958Z,4.57
2019-05-02T20:30:07.629Z,3.90
2019-05-02T20:32:12.653Z,4.00
2019-05-02T20:34:16.917Z,3.70
2019-05-02T20:36:22.636Z,3.90
2019-05-02T20:38:29.270Z,3.43
2019-05-02T20:40:36.514Z,3.40
2019-05-02T20:42:41.894Z,3.70
2019-05-02T20:44:46.267Z,3.33
2019-05-02T20:46:51.617Z,3.53
2019-05-02T20:48:55.918Z,3.83
2019-05-02T20:50:59.928Z,4.07
2019-05-02T20:53:05.804Z,4.23
2019-05-02T20:55:12.139Z,4.07
2019-05-02T20:57:16.561Z,3.93
2019-05-02T20:59:21.834Z,4.50
2019-05-02T21:01:25.998Z,3.53
2019-05-02T21:03:32.637Z,3.67
2019-05-02T21:05:54.909Z,3.60
2019-05-02T21:08:01.873Z,3.90
2019-05-02T21:10:09.589Z,3.30
2019-05-02T21:12:13.471Z,2.93
2019-05-02T21:14:17.683Z,3.73
2019-05-02T21:16:21.941Z,3.20
2019-05-02T21:18:26.005Z,3.03
2019-05-02T21:20:32.535Z,3.37
2019-05-02T21:22:38.343Z,3.00
2019-05-02T21:24:42.428Z,3.33
2019-05-02T21:26:46.430Z,3.27
2019-05-02T21:28:52.164Z,3.40
2019-05-02T21:30:56.389Z,3.30
2019-05-02T21:33:00.288Z,3.57
2019-05-02T21:35:05.540Z,3.33
2019-05-02T21:37:10.651Z,3.30
2019-05-02T21:39:14.516Z,2.80
2019-05-02T21:41:18.585Z,3.03
2019-05-02T21:43:22.484Z,3.40
2019-05-02T21:45:26.356Z,3.37
2019-05-02T21:47:31.885Z,3.30
2019-05-02T21:49:42.956Z,3.27
2019-05-02T21:52:05.179Z,2.93
2019-05-02T21:54:13.340Z,3.33
2019-05-02T21:56:24.710Z,4.20
2019-05-02T21:58:28.815Z,3.03
2019-05-02T22:00:47.256Z,3.20
2019-05-02T22:02:52.346Z,3.33
2019-05-02T22:04:58.847Z,2.80
2019-05-02T22:07:03.070Z,3.47
2019-05-02T22:09:09.398Z,2.70
2019-05-02T22:11:13.439Z,2.70
2019-05-02T22:13:18.902Z,2.97
2019-05-02T22:15:22.983Z,2.47
2019-05-02T22:17:26.880Z,3.67
2019-05-02T22:19:33.000Z,3.00
2019-05-02T22:21:37.255Z,2.70
2019-05-02T22:23:42.587Z,3.10
2019-05-02T22:25:46.806Z,2.87
2019-05-02T22:27:53.898Z,2.87
2019-05-02T22:29:56.354Z,2.90
2019-05-02T22:32:02.492Z,2.40
2019-05-02T22:34:06.532Z,2.90
2019-05-02T22:36:12.271Z,3.43
2019-05-02T22:38:33.978Z,3.07
2019-05-02T22:40:37.874Z,2.73
2019-05-02T22:42:41.798Z,2.97
2019-05-02T22:44:45.691Z,2.50
2019-05-02T22:46:49.681Z,2.20
2019-05-02T22:48:53.580Z,2.73
2019-05-02T22:50:57.448Z,2.90
2019-05-02T22:53:01.356Z,2.03
2019-05-02T22:55:08.352Z,2.80
2019-05-02T22:57:14.769Z,2.33
2019-05-02T22:59:18.736Z,2.60
2019-05-02T23:01:22.597Z,2.43
2019-05-02T23:03:28.073Z,2.97
2019-05-02T23:05:34.361Z,2.40
2019-05-02T23:07:37.776Z,2.37
2019-05-02T23:09:43.485Z,2.03
2019-05-02T23:11:47.168Z,2.53
2019-05-02T23:13:51.771Z,2.43
2019-05-02T23:15:56.757Z,2.83
2019-05-02T23:18:01.692Z,2.30
2019-05-02T23:20:10.033Z,2.17
2019-05-02T23:22:13.891Z,2.47
2019-05-02T23:24:19.648Z,2.37
2019-05-02T23:26:42.249Z,2.20
2019-05-02T23:28:51.746Z,2.43
2019-05-02T23:30:57.734Z,2.20
2019-05-02T23:33:02.302Z,2.50
2019-05-02T23:35:07.485Z,2.70
2019-05-02T23:37:11.977Z,2.07
2019-05-02T23:39:15.968Z,2.73
2019-05-02T23:41:19.872Z,2.70
2019-05-02T23:43:24.771Z,2.57
2019-05-02T23:45:31.585Z,2.30
2019-05-02T23:47:35.584Z,2.10
2019-05-02T23:49:42.715Z,2.33
2019-05-02T23:51:47.783Z,2.13
2019-05-02T23:53:53.000Z,2.17
2019-05-02T23:55:56.913Z,2.30
2019-05-02T23:58:02.877Z,2.10
